sensor_id;sensor_type;location;lat;lon;timestamp;P1;durP1;ratioP1;P2;durP2;ratioP2
20369;SDS011;10344;47.592;9.600;2023-11-22T00:01:16;4.97;;;4.20;;
20369;SDS011;10344;47.592;9.600;2023-11-22T00:03:42;4.80;;;4.30;;
20369;SDS011;10344;47.592;9.600;2023-11-22T00:06:10;4.90;;;4.27;;
20369;SDS011;10344;47.592;9.600;2023-11-22T00:08:35;4.47;;;3.88;;
20369;SDS011;10344;47.592;9.600;2023-11-22T00:11:01;4.72;;;4.10;;
20369;SDS011;10344;47.592;9.600;2023-11-22T00:13:26;4.73;;;3.93;;
20369;SDS011;10344;47.592;9.600;2023-11-22T00:15:52;4.87;;;3.90;;
20369;SDS011;10344;47.592;9.600;2023-11-22T00:18:21;4.63;;;4.10;;
20369;SDS011;10344;47.592;9.600;2023-11-22T00:20:47;4.95;;;4.13;;
20369;SDS011;10344;47.592;9.600;2023-11-22T00:23:13;4.88;;;4.35;;
20369;SDS011;10344;47.592;9.600;2023-11-22T00:25:39;4.22;;;3.83;;
20369;SDS011;10344;47.592;9.600;2023-11-22T00:28:05;4.67;;;4.27;;
20369;SDS011;10344;47.592;9.600;2023-11-22T00:30:36;4.40;;;4.00;;
20369;SDS011;10344;47.592;9.600;2023-11-22T00:33:06;4.60;;;4.00;;
20369;SDS011;10344;47.592;9.600;2023-11-22T00:35:34;5.40;;;4.00;;
20369;SDS011;10344;47.592;9.600;2023-11-22T00:38:00;4.35;;;3.90;;
20369;SDS011;10344;47.592;9.600;2023-11-22T00:40:26;4.57;;;4.18;;
20369;SDS011;10344;47.592;9.600;2023-11-22T00:42:52;4.78;;;4.30;;
20369;SDS011;10344;47.592;9.600;2023-11-22T00:45:18;4.33;;;3.93;;
20369;SDS011;10344;47.592;9.600;2023-11-22T00:47:43;4.97;;;4.47;;
20369;SDS011;10344;47.592;9.600;2023-11-22T00:50:11;4.55;;;4.05;;
20369;SDS011;10344;47.592;9.600;2023-11-22T00:52:37;4.95;;;4.45;;
20369;SDS011;10344;47.592;9.600;2023-11-22T00:55:04;4.68;;;4.20;;
20369;SDS011;10344;47.592;9.600;2023-11-22T00:57:30;4.82;;;4.03;;
20369;SDS011;10344;47.592;9.600;2023-11-22T00:59:56;5.05;;;4.10;;
20369;SDS011;10344;47.592;9.600;2023-11-22T01:02:23;4.78;;;4.28;;
20369;SDS011;10344;47.592;9.600;2023-11-22T01:04:49;5.28;;;4.20;;
20369;SDS011;10344;47.592;9.600;2023-11-22T01:07:19;5.18;;;4.60;;
20369;SDS011;10344;47.592;9.600;2023-11-22T01:09:45;4.60;;;4.10;;
20369;SDS011;10344;47.592;9.600;2023-11-22T01:12:11;6.30;;;4.60;;
20369;SDS011;10344;47.592;9.600;2023-11-22T01:14:39;5.90;;;4.57;;
20369;SDS011;10344;47.592;9.600;2023-11-22T01:17:06;4.82;;;4.40;;
20369;SDS011;10344;47.592;9.600;2023-11-22T01:19:36;5.13;;;4.57;;
20369;SDS011;10344;47.592;9.600;2023-11-22T01:22:02;5.45;;;4.82;;
20369;SDS011;10344;47.592;9.600;2023-11-22T01:24:29;5.27;;;4.57;;
20369;SDS011;10344;47.592;9.600;2023-11-22T01:26:58;5.40;;;4.50;;
20369;SDS011;10344;47.592;9.600;2023-11-22T01:29:26;5.25;;;4.75;;
20369;SDS011;10344;47.592;9.600;2023-11-22T01:31:53;5.60;;;5.03;;
20369;SDS011;10344;47.592;9.600;2023-11-22T01:34:21;4.90;;;4.40;;
20369;SDS011;10344;47.592;9.600;2023-11-22T01:36:49;5.77;;;4.70;;
20369;SDS011;10344;47.592;9.600;2023-11-22T01:39:15;5.13;;;4.63;;
20369;SDS011;10344;47.592;9.600;2023-11-22T01:41:46;5.53;;;4.85;;
20369;SDS011;10344;47.592;9.600;2023-11-22T01:44:14;6.47;;;4.63;;
20369;SDS011;10344;47.592;9.600;2023-11-22T01:46:40;5.55;;;4.97;;
20369;SDS011;10344;47.592;9.600;2023-11-22T01:49:08;6.50;;;5.05;;
20369;SDS011;10344;47.592;9.600;2023-11-22T01:51:35;5.82;;;4.60;;
20369;SDS011;10344;47.592;9.600;2023-11-22T01:54:02;5.60;;;5.03;;
20369;SDS011;10344;47.592;9.600;2023-11-22T01:56:29;6.30;;;5.28;;
20369;SDS011;10344;47.592;9.600;2023-11-22T01:58:59;5.95;;;5.35;;
20369;SDS011;10344;47.592;9.600;2023-11-22T02:01:26;6.35;;;5.35;;
20369;SDS011;10344;47.592;9.600;2023-11-22T02:03:52;7.70;;;5.55;;
20369;SDS011;10344;47.592;9.600;2023-11-22T02:06:20;6.63;;;5.35;;
20369;SDS011;10344;47.592;9.600;2023-11-22T02:08:49;7.80;;;5.45;;
20369;SDS011;10344;47.592;9.600;2023-11-22T02:11:20;6.90;;;5.60;;
20369;SDS011;10344;47.592;9.600;2023-11-22T02:13:50;5.70;;;5.10;;
20369;SDS011;10344;47.592;9.600;2023-11-22T02:16:16;6.35;;;5.35;;
20369;SDS011;10344;47.592;9.600;2023-11-22T02:18:47;6.03;;;5.43;;
20369;SDS011;10344;47.592;9.600;2023-11-22T02:21:18;5.40;;;4.90;;
20369;SDS011;10344;47.592;9.600;2023-11-22T02:23:46;6.20;;;5.10;;
20369;SDS011;10344;47.592;9.600;2023-11-22T02:26:14;6.20;;;5.28;;
20369;SDS011;10344;47.592;9.600;2023-11-22T02:28:43;6.05;;;5.10;;
20369;SDS011;10344;47.592;9.600;2023-11-22T02:31:11;6.35;;;5.78;;
20369;SDS011;10344;47.592;9.600;2023-11-22T02:33:37;6.55;;;5.50;;
20369;SDS011;10344;47.592;9.600;2023-11-22T02:36:06;6.18;;;5.57;;
20369;SDS011;10344;47.592;9.600;2023-11-22T02:38:37;6.75;;;6.00;;
20369;SDS011;10344;47.592;9.600;2023-11-22T02:41:05;7.45;;;5.80;;
20369;SDS011;10344;47.592;9.600;2023-11-22T02:43:34;6.73;;;6.03;;
20369;SDS011;10344;47.592;9.600;2023-11-22T02:46:04;8.13;;;6.18;;
20369;SDS011;10344;47.592;9.600;2023-11-22T02:48:30;7.35;;;5.97;;
20369;SDS011;10344;47.592;9.600;2023-11-22T02:50:58;7.53;;;6.00;;
20369;SDS011;10344;47.592;9.600;2023-11-22T02:53:24;6.93;;;5.72;;
20369;SDS011;10344;47.592;9.600;2023-11-22T02:55:49;6.77;;;5.50;;
20369;SDS011;10344;47.592;9.600;2023-11-22T02:58:15;6.33;;;5.67;;
20369;SDS011;10344;47.592;9.600;2023-11-22T03:00:41;6.68;;;5.65;;
20369;SDS011;10344;47.592;9.600;2023-11-22T03:03:07;6.50;;;5.73;;
20369;SDS011;10344;47.592;9.600;2023-11-22T03:05:36;6.17;;;5.40;;
20369;SDS011;10344;47.592;9.600;2023-11-22T03:08:07;7.45;;;6.15;;
20369;SDS011;10344;47.592;9.600;2023-11-22T03:10:34;6.82;;;5.88;;
20369;SDS011;10344;47.592;9.600;2023-11-22T03:13:02;6.37;;;5.40;;
20369;SDS011;10344;47.592;9.600;2023-11-22T03:15:29;7.28;;;5.95;;
20369;SDS011;10344;47.592;9.600;2023-11-22T03:17:57;6.07;;;5.47;;
20369;SDS011;10344;47.592;9.600;2023-11-22T03:20:23;7.40;;;5.80;;
20369;SDS011;10344;47.592;9.600;2023-11-22T03:22:49;6.85;;;6.15;;
20369;SDS011;10344;47.592;9.600;2023-11-22T03:25:17;6.80;;;5.60;;
20369;SDS011;10344;47.592;9.600;2023-11-22T03:27:43;6.70;;;6.03;;
20369;SDS011;10344;47.592;9.600;2023-11-22T03:30:09;6.97;;;5.90;;
20369;SDS011;10344;47.592;9.600;2023-11-22T03:32:39;8.00;;;6.10;;
20369;SDS011;10344;47.592;9.600;2023-11-22T03:35:06;7.70;;;6.10;;
20369;SDS011;10344;47.592;9.600;2023-11-22T03:37:32;7.13;;;5.82;;
20369;SDS011;10344;47.592;9.600;2023-11-22T03:39:58;8.90;;;6.68;;
20369;SDS011;10344;47.592;9.600;2023-11-22T03:42:26;7.28;;;6.35;;
20369;SDS011;10344;47.592;9.600;2023-11-22T03:44:55;7.13;;;6.22;;
20369;SDS011;10344;47.592;9.600;2023-11-22T03:47:21;7.80;;;6.55;;
20369;SDS011;10344;47.592;9.600;2023-11-22T03:49:47;7.40;;;5.90;;
20369;SDS011;10344;47.592;9.600;2023-11-22T03:52:15;7.35;;;6.47;;
20369;SDS011;10344;47.592;9.600;2023-11-22T03:54:43;8.18;;;6.47;;
20369;SDS011;10344;47.592;9.600;2023-11-22T03:57:09;7.83;;;6.63;;
20369;SDS011;10344;47.592;9.600;2023-11-22T03:59:37;7.95;;;6.25;;
20369;SDS011;10344;47.592;9.600;2023-11-22T04:02:03;8.93;;;6.57;;
20369;SDS011;10344;47.592;9.600;2023-11-22T04:04:32;7.83;;;6.50;;
20369;SDS011;10344;47.592;9.600;2023-11-22T04:06:57;9.38;;;7.38;;
20369;SDS011;10344;47.592;9.600;2023-11-22T04:09:23;8.43;;;6.70;;
20369;SDS011;10344;47.592;9.600;2023-11-22T04:11:54;7.47;;;6.50;;
20369;SDS011;10344;47.592;9.600;2023-11-22T04:14:20;8.43;;;6.38;;
20369;SDS011;10344;47.592;9.600;2023-11-22T04:16:46;7.55;;;6.35;;
20369;SDS011;10344;47.592;9.600;2023-11-22T04:19:12;8.70;;;6.57;;
20369;SDS011;10344;47.592;9.600;2023-11-22T04:21:37;7.23;;;6.40;;
20369;SDS011;10344;47.592;9.600;2023-11-22T04:24:04;7.90;;;6.22;;
20369;SDS011;10344;47.592;9.600;2023-11-22T04:26:32;9.20;;;6.90;;
20369;SDS011;10344;47.592;9.600;2023-11-22T04:29:00;8.48;;;6.68;;
20369;SDS011;10344;47.592;9.600;2023-11-22T04:31:26;8.15;;;6.47;;
20369;SDS011;10344;47.592;9.600;2023-11-22T04:33:51;8.87;;;6.90;;
20369;SDS011;10344;47.592;9.600;2023-11-22T04:36:19;8.07;;;6.67;;
20369;SDS011;10344;47.592;9.600;2023-11-22T04:38:45;9.03;;;6.63;;
20369;SDS011;10344;47.592;9.600;2023-11-22T04:41:14;9.57;;;6.50;;
20369;SDS011;10344;47.592;9.600;2023-11-22T04:43:42;10.03;;;7.13;;
20369;SDS011;10344;47.592;9.600;2023-11-22T04:46:09;8.15;;;6.70;;
20369;SDS011;10344;47.592;9.600;2023-11-22T04:48:35;9.63;;;7.30;;
20369;SDS011;10344;47.592;9.600;2023-11-22T04:51:02;9.18;;;6.70;;
20369;SDS011;10344;47.592;9.600;2023-11-22T04:53:30;10.07;;;7.00;;
20369;SDS011;10344;47.592;9.600;2023-11-22T04:55:57;9.80;;;7.55;;
20369;SDS011;10344;47.592;9.600;2023-11-22T04:58:24;9.15;;;6.88;;
20369;SDS011;10344;47.592;9.600;2023-11-22T05:00:49;11.23;;;7.95;;
20369;SDS011;10344;47.592;9.600;2023-11-22T05:03:15;10.53;;;7.40;;
20369;SDS011;10344;47.592;9.600;2023-11-22T05:05:41;10.27;;;7.40;;
20369;SDS011;10344;47.592;9.600;2023-11-22T05:08:06;10.43;;;7.67;;
20369;SDS011;10344;47.592;9.600;2023-11-22T05:10:32;9.35;;;7.53;;
20369;SDS011;10344;47.592;9.600;2023-11-22T05:12:57;9.95;;;8.02;;
20369;SDS011;10344;47.592;9.600;2023-11-22T05:15:26;11.02;;;7.32;;
20369;SDS011;10344;47.592;9.600;2023-11-22T05:17:52;9.48;;;7.20;;
20369;SDS011;10344;47.592;9.600;2023-11-22T05:20:20;8.75;;;6.97;;
20369;SDS011;10344;47.592;9.600;2023-11-22T05:22:47;9.00;;;6.05;;
20369;SDS011;10344;47.592;9.600;2023-11-22T05:25:13;7.73;;;6.30;;
20369;SDS011;10344;47.592;9.600;2023-11-22T05:27:41;7.35;;;5.70;;
20369;SDS011;10344;47.592;9.600;2023-11-22T05:30:07;6.13;;;5.13;;
20369;SDS011;10344;47.592;9.600;2023-11-22T05:32:35;6.25;;;5.22;;
20369;SDS011;10344;47.592;9.600;2023-11-22T05:35:01;8.57;;;5.60;;
20369;SDS011;10344;47.592;9.600;2023-11-22T05:37:30;6.70;;;5.03;;
20369;SDS011;10344;47.592;9.600;2023-11-22T05:39:57;6.28;;;4.88;;
20369;SDS011;10344;47.592;9.600;2023-11-22T05:42:22;7.25;;;5.10;;
20369;SDS011;10344;47.592;9.600;2023-11-22T05:44:50;7.68;;;5.25;;
20369;SDS011;10344;47.592;9.600;2023-11-22T05:47:15;7.40;;;5.90;;
20369;SDS011;10344;47.592;9.600;2023-11-22T05:49:43;6.55;;;5.40;;
20369;SDS011;10344;47.592;9.600;2023-11-22T05:52:11;6.80;;;5.57;;
20369;SDS011;10344;47.592;9.600;2023-11-22T05:54:36;4.60;;;3.77;;
20369;SDS011;10344;47.592;9.600;2023-11-22T05:57:02;2.80;;;2.50;;
20369;SDS011;10344;47.592;9.600;2023-11-22T05:59:30;2.25;;;1.80;;
20369;SDS011;10344;47.592;9.600;2023-11-22T06:01:56;3.72;;;2.17;;
20369;SDS011;10344;47.592;9.600;2023-11-22T06:04:22;2.40;;;1.97;;
20369;SDS011;10344;47.592;9.600;2023-11-22T06:06:47;2.53;;;1.67;;
20369;SDS011;10344;47.592;9.600;2023-11-22T06:09:15;2.22;;;1.83;;
20369;SDS011;10344;47.592;9.600;2023-11-22T06:11:43;3.03;;;2.10;;
20369;SDS011;10344;47.592;9.600;2023-11-22T06:14:12;1.90;;;1.75;;
20369;SDS011;10344;47.592;9.600;2023-11-22T06:16:41;1.83;;;1.60;;
20369;SDS011;10344;47.592;9.600;2023-11-22T06:19:07;1.75;;;1.60;;
20369;SDS011;10344;47.592;9.600;2023-11-22T06:21:38;1.50;;;1.40;;
20369;SDS011;10344;47.592;9.600;2023-11-22T06:24:04;1.37;;;1.27;;
20369;SDS011;10344;47.592;9.600;2023-11-22T06:26:34;1.90;;;1.30;;
20369;SDS011;10344;47.592;9.600;2023-11-22T06:29:02;1.33;;;1.23;;
20369;SDS011;10344;47.592;9.600;2023-11-22T06:31:28;1.20;;;1.10;;
20369;SDS011;10344;47.592;9.600;2023-11-22T06:33:59;1.35;;;1.25;;
20369;SDS011;10344;47.592;9.600;2023-11-22T06:36:29;1.27;;;1.20;;
20369;SDS011;10344;47.592;9.600;2023-11-22T06:38:55;1.30;;;1.20;;
20369;SDS011;10344;47.592;9.600;2023-11-22T06:41:21;0.90;;;0.90;;
20369;SDS011;10344;47.592;9.600;2023-11-22T06:43:47;1.10;;;1.00;;
20369;SDS011;10344;47.592;9.600;2023-11-22T06:46:15;1.23;;;1.13;;
20369;SDS011;10344;47.592;9.600;2023-11-22T06:48:41;2.88;;;1.20;;
20369;SDS011;10344;47.592;9.600;2023-11-22T06:51:10;1.50;;;1.40;;
20369;SDS011;10344;47.592;9.600;2023-11-22T06:53:40;1.30;;;1.20;;
20369;SDS011;10344;47.592;9.600;2023-11-22T06:56:08;1.42;;;1.30;;
20369;SDS011;10344;47.592;9.600;2023-11-22T06:58:34;1.40;;;1.30;;
20369;SDS011;10344;47.592;9.600;2023-11-22T07:01:00;1.40;;;1.30;;
20369;SDS011;10344;47.592;9.600;2023-11-22T07:03:28;1.52;;;1.42;;
20369;SDS011;10344;47.592;9.600;2023-11-22T07:05:54;1.77;;;1.57;;
20369;SDS011;10344;47.592;9.600;2023-11-22T07:08:19;1.90;;;1.80;;
20369;SDS011;10344;47.592;9.600;2023-11-22T07:10:50;1.90;;;1.70;;
20369;SDS011;10344;47.592;9.600;2023-11-22T07:13:17;2.20;;;2.00;;
20369;SDS011;10344;47.592;9.600;2023-11-22T07:15:45;2.20;;;2.00;;
20369;SDS011;10344;47.592;9.600;2023-11-22T07:18:13;1.95;;;1.80;;
20369;SDS011;10344;47.592;9.600;2023-11-22T07:20:39;2.80;;;2.30;;
20369;SDS011;10344;47.592;9.600;2023-11-22T07:23:05;2.47;;;2.23;;
20369;SDS011;10344;47.592;9.600;2023-11-22T07:25:43;2.55;;;2.30;;
20369;SDS011;10344;47.592;9.600;2023-11-22T07:28:19;2.72;;;2.38;;
20369;SDS011;10344;47.592;9.600;2023-11-22T07:30:45;2.50;;;2.30;;
20369;SDS011;10344;47.592;9.600;2023-11-22T07:33:12;3.45;;;2.55;;
20369;SDS011;10344;47.592;9.600;2023-11-22T07:35:37;5.18;;;2.90;;
20369;SDS011;10344;47.592;9.600;2023-11-22T07:41:18;3.65;;;2.78;;
20369;SDS011;10344;47.592;9.600;2023-11-22T07:43:43;3.60;;;2.03;;
20369;SDS011;10344;47.592;9.600;2023-11-22T07:46:09;2.30;;;2.10;;
20369;SDS011;10344;47.592;9.600;2023-11-22T07:48:38;2.40;;;2.03;;
20369;SDS011;10344;47.592;9.600;2023-11-22T07:51:05;2.10;;;1.90;;
20369;SDS011;10344;47.592;9.600;2023-11-22T07:53:32;2.85;;;2.30;;
20369;SDS011;10344;47.592;9.600;2023-11-22T07:56:02;2.67;;;2.10;;
20369;SDS011;10344;47.592;9.600;2023-11-22T07:58:32;2.20;;;2.00;;
20369;SDS011;10344;47.592;9.600;2023-11-22T08:00:58;3.37;;;2.17;;
20369;SDS011;10344;47.592;9.600;2023-11-22T08:03:24;2.42;;;2.20;;
20369;SDS011;10344;47.592;9.600;2023-11-22T08:05:51;4.25;;;3.33;;
20369;SDS011;10344;47.592;9.600;2023-11-22T08:08:21;3.38;;;2.97;;
20369;SDS011;10344;47.592;9.600;2023-11-22T08:10:47;2.78;;;2.45;;
20369;SDS011;10344;47.592;9.600;2023-11-22T08:13:18;2.97;;;2.67;;
20369;SDS011;10344;47.592;9.600;2023-11-22T08:15:50;3.30;;;2.70;;
20369;SDS011;10344;47.592;9.600;2023-11-22T08:18:16;4.07;;;2.93;;
20369;SDS011;10344;47.592;9.600;2023-11-22T08:20:42;3.50;;;2.70;;
20369;SDS011;10344;47.592;9.600;2023-11-22T08:23:08;3.08;;;2.80;;
20369;SDS011;10344;47.592;9.600;2023-11-22T08:25:35;3.10;;;2.77;;
20369;SDS011;10344;47.592;9.600;2023-11-22T08:28:03;2.95;;;2.65;;
20369;SDS011;10344;47.592;9.600;2023-11-22T08:30:29;3.22;;;2.78;;
20369;SDS011;10344;47.592;9.600;2023-11-22T08:32:57;3.10;;;2.80;;
20369;SDS011;10344;47.592;9.600;2023-11-22T08:35:23;3.50;;;3.00;;
20369;SDS011;10344;47.592;9.600;2023-11-22T08:37:49;3.10;;;2.80;;
20369;SDS011;10344;47.592;9.600;2023-11-22T08:40:15;3.83;;;3.03;;
20369;SDS011;10344;47.592;9.600;2023-11-22T08:42:45;4.22;;;3.35;;
20369;SDS011;10344;47.592;9.600;2023-11-22T08:45:14;4.05;;;2.85;;
20369;SDS011;10344;47.592;9.600;2023-11-22T08:47:40;3.08;;;2.50;;
20369;SDS011;10344;47.592;9.600;2023-11-22T08:50:08;2.90;;;2.60;;
20369;SDS011;10344;47.592;9.600;2023-11-22T08:52:37;2.83;;;2.53;;
20369;SDS011;10344;47.592;9.600;2023-11-22T08:55:04;3.40;;;2.70;;
20369;SDS011;10344;47.592;9.600;2023-11-22T08:57:32;3.05;;;2.75;;
20369;SDS011;10344;47.592;9.600;2023-11-22T09:00:00;3.37;;;2.73;;
20369;SDS011;10344;47.592;9.600;2023-11-22T09:02:32;3.42;;;2.72;;
20369;SDS011;10344;47.592;9.600;2023-11-22T09:04:58;3.30;;;3.00;;
20369;SDS011;10344;47.592;9.600;2023-11-22T09:07:23;13.82;;;7.60;;
20369;SDS011;10344;47.592;9.600;2023-11-22T09:09:49;5.87;;;4.00;;
20369;SDS011;10344;47.592;9.600;2023-11-22T09:12:16;3.75;;;2.95;;
20369;SDS011;10344;47.592;9.600;2023-11-22T09:14:44;3.00;;;2.65;;
20369;SDS011;10344;47.592;9.600;2023-11-22T09:17:12;2.60;;;2.40;;
20369;SDS011;10344;47.592;9.600;2023-11-22T09:19:38;2.35;;;2.15;;
20369;SDS011;10344;47.592;9.600;2023-11-22T09:22:04;2.67;;;2.40;;
20369;SDS011;10344;47.592;9.600;2023-11-22T09:24:33;2.90;;;2.25;;
20369;SDS011;10344;47.592;9.600;2023-11-22T09:27:01;3.33;;;1.95;;
20369;SDS011;10344;47.592;9.600;2023-11-22T09:29:35;2.10;;;1.90;;
20369;SDS011;10344;47.592;9.600;2023-11-22T09:32:01;2.40;;;2.17;;
20369;SDS011;10344;47.592;9.600;2023-11-22T09:34:30;2.90;;;2.20;;
20369;SDS011;10344;47.592;9.600;2023-11-22T09:36:56;2.55;;;2.20;;
20369;SDS011;10344;47.592;9.600;2023-11-22T09:39:22;2.90;;;2.60;;
20369;SDS011;10344;47.592;9.600;2023-11-22T09:41:49;2.77;;;2.57;;
20369;SDS011;10344;47.592;9.600;2023-11-22T09:44:17;3.28;;;2.70;;
20369;SDS011;10344;47.592;9.600;2023-11-22T09:46:43;3.03;;;2.60;;
20369;SDS011;10344;47.592;9.600;2023-11-22T09:49:10;2.90;;;2.45;;
20369;SDS011;10344;47.592;9.600;2023-11-22T09:51:42;3.17;;;2.88;;
20369;SDS011;10344;47.592;9.600;2023-11-22T09:54:10;3.20;;;2.87;;
20369;SDS011;10344;47.592;9.600;2023-11-22T09:56:39;3.78;;;3.30;;
20369;SDS011;10344;47.592;9.600;2023-11-22T09:59:06;3.90;;;3.25;;
20369;SDS011;10344;47.592;9.600;2023-11-22T10:01:33;3.22;;;2.92;;
20369;SDS011;10344;47.592;9.600;2023-11-22T10:04:01;3.42;;;2.90;;
20369;SDS011;10344;47.592;9.600;2023-11-22T10:06:30;3.53;;;2.95;;
20369;SDS011;10344;47.592;9.600;2023-11-22T10:08:59;3.10;;;2.53;;
20369;SDS011;10344;47.592;9.600;2023-11-22T10:11:33;2.58;;;2.30;;
20369;SDS011;10344;47.592;9.600;2023-11-22T10:14:01;3.28;;;2.50;;
20369;SDS011;10344;47.592;9.600;2023-11-22T10:16:27;2.93;;;2.43;;
20369;SDS011;10344;47.592;9.600;2023-11-22T10:18:52;2.83;;;2.50;;
20369;SDS011;10344;47.592;9.600;2023-11-22T10:23:46;2.78;;;2.33;;
20369;SDS011;10344;47.592;9.600;2023-11-22T10:26:17;4.82;;;2.50;;
20369;SDS011;10344;47.592;9.600;2023-11-22T10:28:42;2.67;;;2.20;;
20369;SDS011;10344;47.592;9.600;2023-11-22T10:31:11;2.33;;;2.13;;
20369;SDS011;10344;47.592;9.600;2023-11-22T10:33:40;2.85;;;2.30;;
20369;SDS011;10344;47.592;9.600;2023-11-22T10:36:09;2.10;;;1.90;;
20369;SDS011;10344;47.592;9.600;2023-11-22T10:38:37;2.45;;;2.00;;
20369;SDS011;10344;47.592;9.600;2023-11-22T10:41:09;5.73;;;2.20;;
20369;SDS011;10344;47.592;9.600;2023-11-22T10:43:35;2.25;;;2.05;;
20369;SDS011;10344;47.592;9.600;2023-11-22T10:46:02;2.58;;;2.22;;
20369;SDS011;10344;47.592;9.600;2023-11-22T10:48:29;2.72;;;2.25;;
20369;SDS011;10344;47.592;9.600;2023-11-22T10:50:57;2.33;;;2.13;;
20369;SDS011;10344;47.592;9.600;2023-11-22T10:53:31;2.63;;;2.30;;
20369;SDS011;10344;47.592;9.600;2023-11-22T10:58:48;2.70;;;2.30;;
20369;SDS011;10344;47.592;9.600;2023-11-22T11:01:24;3.35;;;2.35;;
20369;SDS011;10344;47.592;9.600;2023-11-22T11:06:23;2.40;;;2.13;;
20369;SDS011;10344;47.592;9.600;2023-11-22T11:08:55;2.88;;;2.25;;
20369;SDS011;10344;47.592;9.600;2023-11-22T11:11:25;2.72;;;2.08;;
20369;SDS011;10344;47.592;9.600;2023-11-22T11:13:52;2.40;;;2.20;;
20369;SDS011;10344;47.592;9.600;2023-11-22T11:16:18;2.30;;;2.10;;
20369;SDS011;10344;47.592;9.600;2023-11-22T11:18:45;2.90;;;2.20;;
20369;SDS011;10344;47.592;9.600;2023-11-22T11:21:14;2.78;;;2.50;;
20369;SDS011;10344;47.592;9.600;2023-11-22T11:23:40;2.40;;;2.20;;
20369;SDS011;10344;47.592;9.600;2023-11-22T11:26:13;2.80;;;2.47;;
20369;SDS011;10344;47.592;9.600;2023-11-22T11:28:45;2.15;;;1.90;;
20369;SDS011;10344;47.592;9.600;2023-11-22T11:31:15;2.20;;;2.00;;
20369;SDS011;10344;47.592;9.600;2023-11-22T11:38:52;6.97;;;4.80;;
20369;SDS011;10344;47.592;9.600;2023-11-22T11:41:23;4.40;;;3.47;;
20369;SDS011;10344;47.592;9.600;2023-11-22T11:43:53;3.20;;;2.80;;
20369;SDS011;10344;47.592;9.600;2023-11-22T11:46:21;2.97;;;2.40;;
20369;SDS011;10344;47.592;9.600;2023-11-22T11:48:53;2.50;;;2.30;;
20369;SDS011;10344;47.592;9.600;2023-11-22T11:51:25;2.75;;;2.30;;
20369;SDS011;10344;47.592;9.600;2023-11-22T11:53:55;2.58;;;2.20;;
20369;SDS011;10344;47.592;9.600;2023-11-22T11:56:21;2.60;;;2.10;;
20369;SDS011;10344;47.592;9.600;2023-11-22T11:58:48;2.72;;;2.45;;
20369;SDS011;10344;47.592;9.600;2023-11-22T12:01:15;2.50;;;2.30;;
20369;SDS011;10344;47.592;9.600;2023-11-22T12:03:42;3.58;;;2.83;;
20369;SDS011;10344;47.592;9.600;2023-11-22T12:06:08;3.80;;;3.10;;
20369;SDS011;10344;47.592;9.600;2023-11-22T12:08:34;2.50;;;2.30;;
20369;SDS011;10344;47.592;9.600;2023-11-22T12:11:03;2.58;;;2.22;;
20369;SDS011;10344;47.592;9.600;2023-11-22T12:13:32;3.70;;;2.90;;
20369;SDS011;10344;47.592;9.600;2023-11-22T12:15:58;2.30;;;2.10;;
20369;SDS011;10344;47.592;9.600;2023-11-22T12:18:23;2.40;;;2.20;;
20369;SDS011;10344;47.592;9.600;2023-11-22T12:20:56;2.40;;;2.20;;
20369;SDS011;10344;47.592;9.600;2023-11-22T12:23:24;2.60;;;2.40;;
20369;SDS011;10344;47.592;9.600;2023-11-22T12:25:58;2.30;;;2.10;;
20369;SDS011;10344;47.592;9.600;2023-11-22T12:28:26;2.33;;;2.13;;
20369;SDS011;10344;47.592;9.600;2023-11-22T12:31:06;2.90;;;2.43;;
20369;SDS011;10344;47.592;9.600;2023-11-22T12:33:38;2.40;;;2.20;;
20369;SDS011;10344;47.592;9.600;2023-11-22T12:36:06;2.40;;;2.08;;
20369;SDS011;10344;47.592;9.600;2023-11-22T12:38:34;2.78;;;2.30;;
20369;SDS011;10344;47.592;9.600;2023-11-22T12:41:00;2.60;;;2.40;;
20369;SDS011;10344;47.592;9.600;2023-11-22T12:43:31;2.83;;;2.15;;
20369;SDS011;10344;47.592;9.600;2023-11-22T12:46:00;3.90;;;2.75;;
20369;SDS011;10344;47.592;9.600;2023-11-22T12:48:32;2.95;;;2.40;;
20369;SDS011;10344;47.592;9.600;2023-11-22T12:51:01;3.00;;;2.63;;
20369;SDS011;10344;47.592;9.600;2023-11-22T12:53:27;3.03;;;2.60;;
20369;SDS011;10344;47.592;9.600;2023-11-22T12:55:53;2.95;;;2.65;;
20369;SDS011;10344;47.592;9.600;2023-11-22T12:58:20;3.28;;;2.78;;
20369;SDS011;10344;47.592;9.600;2023-11-22T13:00:51;2.85;;;2.65;;
20369;SDS011;10344;47.592;9.600;2023-11-22T13:03:25;2.97;;;2.67;;
20369;SDS011;10344;47.592;9.600;2023-11-22T13:05:51;3.38;;;3.08;;
20369;SDS011;10344;47.592;9.600;2023-11-22T13:08:17;3.20;;;2.90;;
20369;SDS011;10344;47.592;9.600;2023-11-22T13:10:43;3.53;;;2.93;;
20369;SDS011;10344;47.592;9.600;2023-11-22T13:13:19;4.35;;;3.10;;
20369;SDS011;10344;47.592;9.600;2023-11-22T13:15:45;4.20;;;3.80;;
20369;SDS011;10344;47.592;9.600;2023-11-22T13:18:11;3.77;;;2.90;;
20369;SDS011;10344;47.592;9.600;2023-11-22T13:20:37;3.53;;;3.05;;
20369;SDS011;10344;47.592;9.600;2023-11-22T13:23:05;3.28;;;2.97;;
20369;SDS011;10344;47.592;9.600;2023-11-22T13:25:32;2.88;;;2.58;;
20369;SDS011;10344;47.592;9.600;2023-11-22T13:28:00;4.55;;;3.00;;
20369;SDS011;10344;47.592;9.600;2023-11-22T13:30:27;3.28;;;2.65;;
20369;SDS011;10344;47.592;9.600;2023-11-22T13:32:55;3.70;;;2.85;;
20369;SDS011;10344;47.592;9.600;2023-11-22T13:35:22;3.00;;;2.65;;
20369;SDS011;10344;47.592;9.600;2023-11-22T13:37:55;3.15;;;2.85;;
20369;SDS011;10344;47.592;9.600;2023-11-22T13:40:27;3.28;;;2.80;;
20369;SDS011;10344;47.592;9.600;2023-11-22T13:42:56;3.20;;;2.90;;
20369;SDS011;10344;47.592;9.600;2023-11-22T13:45:23;3.10;;;2.80;;
20369;SDS011;10344;47.592;9.600;2023-11-22T13:47:49;3.10;;;2.80;;
20369;SDS011;10344;47.592;9.600;2023-11-22T13:50:18;3.13;;;2.67;;
20369;SDS011;10344;47.592;9.600;2023-11-22T13:52:47;3.28;;;2.70;;
20369;SDS011;10344;47.592;9.600;2023-11-22T13:55:14;3.40;;;2.77;;
20369;SDS011;10344;47.592;9.600;2023-11-22T13:57:47;3.40;;;2.70;;
20369;SDS011;10344;47.592;9.600;2023-11-22T14:00:13;3.03;;;2.53;;
20369;SDS011;10344;47.592;9.600;2023-11-22T14:02:44;2.90;;;2.63;;
20369;SDS011;10344;47.592;9.600;2023-11-22T14:05:14;2.90;;;2.60;;
20369;SDS011;10344;47.592;9.600;2023-11-22T14:07:40;3.42;;;2.80;;
20369;SDS011;10344;47.592;9.600;2023-11-22T14:10:07;3.70;;;3.00;;
20369;SDS011;10344;47.592;9.600;2023-11-22T14:12:34;4.22;;;3.25;;
20369;SDS011;10344;47.592;9.600;2023-11-22T14:15:00;3.90;;;3.33;;
20369;SDS011;10344;47.592;9.600;2023-11-22T14:17:31;4.43;;;3.70;;
20369;SDS011;10344;47.592;9.600;2023-11-22T14:19:57;4.77;;;3.30;;
20369;SDS011;10344;47.592;9.600;2023-11-22T14:22:25;3.90;;;3.40;;
20369;SDS011;10344;47.592;9.600;2023-11-22T14:24:52;4.40;;;3.58;;
20369;SDS011;10344;47.592;9.600;2023-11-22T14:27:18;6.30;;;4.50;;
20369;SDS011;10344;47.592;9.600;2023-11-22T14:29:47;4.85;;;3.60;;
20369;SDS011;10344;47.592;9.600;2023-11-22T14:32:15;4.07;;;3.67;;
20369;SDS011;10344;47.592;9.600;2023-11-22T14:34:44;4.35;;;3.78;;
20369;SDS011;10344;47.592;9.600;2023-11-22T14:37:11;5.18;;;4.10;;
20369;SDS011;10344;47.592;9.600;2023-11-22T14:39:37;4.25;;;3.72;;
20369;SDS011;10344;47.592;9.600;2023-11-22T14:42:06;4.70;;;3.92;;
20369;SDS011;10344;47.592;9.600;2023-11-22T14:44:36;5.57;;;4.17;;
20369;SDS011;10344;47.592;9.600;2023-11-22T14:47:02;5.28;;;4.00;;
20369;SDS011;10344;47.592;9.600;2023-11-22T14:49:34;5.93;;;4.40;;
20369;SDS011;10344;47.592;9.600;2023-11-22T14:52:00;5.45;;;4.43;;
20369;SDS011;10344;47.592;9.600;2023-11-22T14:54:26;6.07;;;4.80;;
20369;SDS011;10344;47.592;9.600;2023-11-22T14:56:52;6.13;;;4.90;;
20369;SDS011;10344;47.592;9.600;2023-11-22T14:59:25;6.15;;;4.70;;
20369;SDS011;10344;47.592;9.600;2023-11-22T15:01:53;5.22;;;4.53;;
20369;SDS011;10344;47.592;9.600;2023-11-22T15:04:20;6.37;;;4.97;;
20369;SDS011;10344;47.592;9.600;2023-11-22T15:06:46;5.82;;;5.05;;